Aeroporto :
LOGIN :

Iscrizione | Disclaimer

   EN    FR    IT 

 










Sommario :    VFR   VFR Marginale   IFR   IFR Intensivo   IFR Molto Intensivo
Visibilità : 
Base nubi : 
>= 8 km
>= 3000ft
5 / 8 km
1000 / 3000 ft
1500m / 5 km
500 / 1000 ft
800 / 1500m
200 / 500 ft
< 800m
< 200 ft
Simboli :   Temporali  Nebbia  Neve Forte  Precipitazioni Forti  Vento > 20 kt
SIGMETs :   Varie  Temporali  Ghiacco  Turbolenza  Onda orograficha  Ceneri Vulcaniche







- Altitudine del aeroporto : 505 ft
- Codice IATA : SXB
- Carte del aeroporto


LFST - Strasbourg

ULTIMO METAR :
  • 212330Z AUTO 26004KT CAVOK 14/12 Q1011 NOSIG

METARs OBSOLETI :
  • 212300Z AUTO 27004KT 230V290 CAVOK 15/12 Q1011 NOSIG
  • 212230Z AUTO 27004KT CAVOK 15/13 Q1011 NOSIG
  • 212200Z AUTO VRB02KT CAVOK 15/13 Q1012 NOSIG
  • 212130Z AUTO 21004KT CAVOK 15/13 Q1012 NOSIG
  • 212100Z AUTO VRB03KT CAVOK 16/12 Q1012 NOSIG

TAF TAF LFST
Valido dal 22 a 00 ore il 23 a 00 ore UTC


212300Z 2200/2224 VRB05KT CAVOK
PROB40
TEMPO 2210/2222 4000 SHRA FEW060CB
PROB30
TEMPO 2212/2218 VRB10G20KT 2000 TSRA SCT055CB
Nessun NOTAM noto per questo aeroporto.



MetMap, La meteo Aeronautica in un colpo d'occhio ! - Copyright ORBIFLY Dicembre 2007 - Disclaimer

ORBIFLY MET'MAP TEAM :

Programmazione e sviluppo : Alexandra Zaïnal
Concezione e sviluppo : Baudouin d'Aumeries
Co-Programmazione e sviluppo : Marc-Olivier Méhu
Supporto tecnico e logistico : Manuel Goepfert
Aiuto per la traduzione : Arnaldo La Scala

Contatto : metmap@orbifly.com




FONTI E CREDITI :

   NOAA